Station: CAPE BORDA AWS

  Atmospheric Gas Attenuation - ITU Rec 676-11   --------------- db/100km ---------------
Date Time Temp RH % AH g/m3 Dew Point Wind Direction Speed kph Gust kph Barometer mB Rainfall Since 9am 24GHz 47GHz 76GHz 122GHz 134GHz 241GHz
03 07:40 13.9 81 9.71 10.7 17 19 1022.5 0 21.9 28.1 44.7 117.5 114.1 393.2
03 07:30 13.4 84 9.77 10.8 15 20 1022.1 0 22.1 28.3 45.3 118.9 115.6 398.5
03 07:20 13 89 10.09 11.2 13 15 1022.1 0 22.8 29.0 46.9 123.1 120.7 416.4
03 07:10 12.3 91 9.88 10.9 13 15 1021.9 0 22.4 28.8 46.4 121.8 118.8 409.6
03 07:00 11.8 94 9.89 10.9 15 17 1021.7 0 22.4 29.0 46.7 122.7 119.7 412.7
03 06:50 11.3 96 9.79 10.7 17 19 1021.7 0 22.3 29.0 46.6 122.3 119.1 410.4
03 06:40 10.8 97 9.59 10.3 15 17 1021.6 0 21.9 28.8 46.0 120.8 117.0 402.9
03 06:30 10.3 98 9.39 10 19 20 1021.5 0 21.5 28.6 45.4 119.2 114.9 395.5
03 06:20 10.2 98 9.33 9.9 17 19 1021.5 0 21.3 28.6 45.2 118.7 114.1 393.0
03 06:10 10.2 98 9.33 9.9 17 17 1021.3 0 21.3 28.5 45.2 118.6 114.1 392.9
03 06:00 10.3 98 9.39 10 19 20 1021.2 0 21.5 28.6 45.4 119.2 114.8 395.4
03 05:50 10.2 98 9.33 9.9 19 20 1021 0 21.3 28.5 45.2 118.6 114.1 392.8
03 05:40 10.4 99 9.54 10.2 17 19 1020.8 0 21.8 28.8 45.9 120.7 116.8 402.3
03 05:30 10.4 99 9.54 10.2 17 20 1020.8 0 21.8 28.8 45.9 120.7 116.8 402.3
03 05:20 10.5 99 9.6 10.3 19 19 1020.7 0 21.9 28.9 46.1 121.2 117.5 404.7
03 05:00 10.5 99 9.6 10.3 17 19 1020.6 0 21.9 28.9 46.1 121.2 117.5 404.7
03 04:50 10.6 99 9.66 10.4 17 17 1020.5 0 22.0 29.0 46.3 121.8 118.2 407.2
03 04:40 10.7 99 9.73 10.5 15 15 1020.5 0 22.2 29.1 46.6 122.4 119.0 410.2
03 04:30 10.8 99 9.79 10.6 17 19 1020.5 0 22.3 29.1 46.8 123.0 119.7 412.7
03 04:20 10.7 99 9.73 10.5 15 17 1020.4 0 22.2 29.0 46.6 122.4 119.0 410.1
03 04:10 10.8 100 9.89 10.8 17 19 1020.4 0 22.5 29.3 47.2 124.1 121.2 417.7
03 04:00 10.4 99 9.54 10.2 15 17 1020.4 0 21.8 28.8 45.9 120.7 116.8 402.1
03 03:50 10.5 99 9.6 10.3 13 15 1020.4 0 21.9 28.9 46.1 121.2 117.5 404.6
03 03:40 10.7 99 9.73 10.5 15 17 1020.3 0 22.2 29.0 46.6 122.4 119.0 410.1
03 03:30 10.8 98 9.69 10.5 15 17 1020.2 0 22.1 28.9 46.3 121.8 118.3 407.5
03 03:20 10.9 98 9.75 10.6 15 17 1020.3 0 22.2 29.0 46.5 122.3 119.0 410.0
03 03:10 11.1 98 9.87 10.8 15 15 1020.4 0 22.4 29.2 47.0 123.4 120.4 415.0
03 03:00 11.3 98 10 11 15 17 1020.4 0 22.7 29.3 47.4 124.6 122.0 420.5
03 02:50 11.5 98 10.12 11.2 15 17 1020.4 0 23.0 29.5 47.8 125.7 123.4 425.5
03 02:40 11.4 98 10.06 11.1 17 17 1020.5 0 22.8 29.4 47.6 125.2 122.7 423.0
03 02:30 11.4 98 10.06 11.1 17 19 1020.6 0 22.8 29.4 47.6 125.2 122.7 423.1
03 02:20 11.5 98 10.12 11.2 19 20 1020.6 0 23.0 29.5 47.8 125.7 123.4 425.6
03 02:10 11.5 97 10.02 11 17 19 1020.5 0 22.7 29.3 47.4 124.5 122.0 420.5
03 02:00 11.6 97 10.08 11.1 17 20 1020.6 0 22.9 29.4 47.6 125.1 122.7 423.0
03 01:50 11.5 97 10.02 11 17 19 1020.5 0 22.7 29.3 47.4 124.5 122.0 420.5
03 01:40 11.6 97 10.08 11.1 17 20 1020.5 0 22.9 29.4 47.6 125.1 122.7 422.9
03 01:30 11.7 97 10.15 11.2 17 20 1020.5 0 23.0 29.5 47.8 125.7 123.5 425.9
03 01:20 11.7 96 10.04 11.1 19 20 1020.5 0 22.8 29.3 47.3 124.5 121.9 420.4
03 01:10 12 96 10.23 11.4 15 17 1020.5 0 23.2 29.5 48.0 126.2 124.2 428.3
03 01:00 12.1 95 10.19 11.3 17 22 1020.5 0 23.1 29.4 47.8 125.6 123.4 425.7
03 00:50 12.3 95 10.32 11.5 17 17 1020.5 0 23.3 29.6 48.2 126.8 125.0 431.2
03 00:40 12.5 94 10.34 11.6 15 19 1020.6 0 23.4 29.5 48.2 126.7 124.9 431.1
03 00:30 12.7 94 10.46 11.8 15 19 1020.6 0 23.6 29.7 48.6 127.7 126.3 436.0
03 00:20 13 93 10.55 11.9 17 22 1020.5 0 23.8 29.7 48.8 128.3 127.1 438.8
03 00:10 13.3 93 10.75 12.2 19 20 1020.5 0 24.2 30.0 49.5 130.1 129.5 447.1
03 00:00 13.3 92 10.63 12 17 22 1020.4 0 24.0 29.8 48.9 128.7 127.8 441.0
02 23:50 13.3 91 10.51 11.9 17 19 1020.6 0 23.7 29.6 48.4 127.3 126.1 435.1
02 23:40 13.2 91 10.45 11.8 13 13 1020.7 0 23.6 29.5 48.2 126.8 125.4 432.7
02 23:30 13.1 90 10.27 11.5 13 15 1020.7 0 23.2 29.2 47.5 124.9 123.0 424.3
02 23:20 13.3 89 10.28 11.5 15 15 1020.8 0 23.2 29.2 47.4 124.7 122.8 423.7
02 23:10 13.6 88 10.36 11.7 11 11 1020.8 0 23.4 29.2 47.6 125.1 123.5 426.0
02 23:00 13.5 89 10.41 11.7 13 17 1020.9 0 23.5 29.3 47.9 125.9 124.3 429.1
02 22:50 13.1 90 10.27 11.5 13 15 1020.9 0 23.2 29.2 47.5 124.9 123.0 424.3
02 22:40 12.7 89 9.91 10.9 15 15 1020.9 0 22.4 28.7 46.2 121.4 118.5 408.7
02 22:30 12.7 89 9.91 10.9 15 20 1020.9 0 22.4 28.7 46.2 121.4 118.5 408.7
02 22:20 12.6 88 9.74 10.7 17 19 1020.8 0 22.1 28.5 45.5 119.6 116.3 400.8
02 22:10 12.4 89 9.73 10.6 15 17 1020.8 0 22.1 28.5 45.6 119.8 116.4 401.3
02 22:00 12.4 87 9.51 10.3 13 15 1020.7 0 21.6 28.1 44.7 117.3 113.3 390.5
02 21:50 12.8 86 9.63 10.5 13 15 1020.6 0 21.8 28.2 44.9 118.0 114.4 394.3
02 21:40 12.9 85 9.58 10.4 15 17 1020.5 0 21.7 28.1 44.7 117.3 113.6 391.3
02 21:30 13.1 84 9.59 10.5 17 20 1020.6 0 21.7 28.0 44.6 117.1 113.4 390.8
02 21:20 13.2 83 9.53 10.4 17 19 1020.5 0 21.6 27.9 44.3 116.3 112.4 387.4
02 21:10 13.3 81 9.36 10.1 15 17 1020.5 0 21.2 27.6 43.5 114.2 109.9 378.7
02 21:00 13.5 81 9.47 10.3 17 19 1020.4 0 21.5 27.7 43.9 115.2 111.1 383.0
02 20:50 13.4 80 9.3 10 15 17 1020.3 0 21.1 27.4 43.2 113.4 109.0 375.3
02 20:40 13.7 78 9.24 9.9 15 15 1020.2 0 21.0 27.2 42.8 112.3 107.7 371.0
02 20:30 14.1 77 9.35 10.1 20 28 1020 0 21.2 27.3 43.0 112.9 108.6 374.2
02 20:20 14.3 75 9.21 9.9 17 22 1020.1 0 20.9 27.0 42.3 111.1 106.5 366.7
02 20:10 14.6 73 9.14 9.8 19 24 1020 0 20.7 26.8 41.9 109.9 105.1 362.0
02 20:00 14.9 73 9.3 10.1 22 32 1019.9 0 21.0 27.0 42.4 111.2 106.8 368.0
02 19:50 15 73 9.36 10.2 20 26 1019.9 0 21.1 27.0 42.6 111.7 107.5 370.4
02 19:40 15.2 73 9.48 10.4 28 35 1019.9 0 21.4 27.2 42.9 112.7 108.8 375.1
02 19:30 15.5 70 9.25 10.1 26 35 1019.8 0 20.9 26.7 41.8 109.8 105.3 362.9
02 19:20 15.5 70 9.25 10.1 28 32 1019.8 0 20.9 26.7 41.8 109.8 105.3 362.9
02 19:10 15.6 68 9.04 9.7 30 33 1019.7 0 20.4 26.3 40.9 107.4 102.4 352.7
02 19:00 15.9 70 9.48 10.4 28 39 1019.4 0 21.4 26.9 42.5 111.7 107.8 371.6
02 18:50 15.8 70 9.42 10.3 30 35 1019.3 0 21.2 26.9 42.3 111.2 107.1 369.2
02 18:40 15.9 69 9.34 10.2 33 41 1019.2 0 21.1 26.7 42.0 110.2 105.9 365.0
02 18:30 16.3 69 9.57 10.6 28 39 1019.1 0 21.5 26.9 42.7 112.1 108.4 373.8
02 18:20 16.2 67 9.24 10.1 28 37 1019.1 0 20.8 26.4 41.4 108.7 104.2 359.0
02 18:10 16.2 68 9.38 10.3 33 41 1018.9 0 21.1 26.7 41.9 110.1 106.0 365.4
02 18:00 16.3 65 9.02 9.7 30 41 1018.7 0 20.4 26.0 40.5 106.2 101.1 348.4
02 17:50 16.1 64 8.77 9.3 33 39 1018.7 0 19.8 25.7 39.6 103.8 98.2 337.9
02 17:40 16.2 66 9.1 9.8 35 39 1018.7 0 20.5 26.2 40.8 107.1 102.3 352.5
02 17:30 16.4 65 9.07 9.8 32 44 1018.6 0 20.5 26.1 40.6 106.5 101.7 350.2
02 17:20 17 65 9.4 10.4 28 33 1018.7 0 21.1 26.4 41.6 109.2 105.2 362.6
02 17:10 16.7 63 8.95 9.6 35 39 1018.6 0 20.2 25.8 40.0 104.9 99.7 343.4
02 17:00 16.4 63 8.79 9.3 32 41 1018.3 0 19.9 25.6 39.5 103.6 98.0 337.4
02 16:50 16.7 61 8.67 9.1 32 37 1018.4 0 19.6 25.4 38.9 101.9 96.1 330.8
02 16:40 16.7 62 8.81 9.4 28 35 1018.4 0 19.9 25.6 39.4 103.4 97.9 337.1
02 16:30 16.6 62 8.76 9.3 32 41 1018.4 0 19.8 25.5 39.3 103.0 97.4 335.2
02 16:20 16.7 60 8.53 8.9 28 33 1018.5 0 19.3 25.2 38.3 100.5 94.3 324.6
02 16:10 16.8 61 8.72 9.2 32 37 1018.5 0 19.7 25.4 39.0 102.3 96.6 332.6
02 16:00 16.5 61 8.57 9 32 41 1018.4 0 19.4 25.3 38.6 101.2 95.1 327.2
02 15:50 16.3 62 8.6 9 32 35 1018.5 0 19.5 25.4 38.8 101.7 95.7 329.3
02 15:40 16.7 61 8.67 9.1 33 37 1018.5 0 19.6 25.4 38.9 101.9 96.1 330.8
02 15:30 16.3 61 8.46 8.8 32 41 1018.5 0 19.2 25.2 38.3 100.3 93.9 323.1
02 15:20 16.3 60 8.32 8.5 33 39 1018.7 0 18.9 24.9 37.7 98.9 92.2 316.9
02 15:10 16.3 62 8.6 9 30 37 1018.7 0 19.5 25.4 38.8 101.8 95.7 329.4
02 15:00 16.2 60 8.27 8.4 30 43 1018.5 0 18.8 24.9 37.6 98.5 91.6 315.0

Last Refresh: 03-Dec-2021 07:48:41

Bureau of Meteorology